createdAt,value
2022-11-23T00:02:27.737Z,97230.59
2022-11-23T00:05:31.213Z,97227.91
2022-11-23T00:08:33.871Z,97223.44
2022-11-23T00:11:38.048Z,97223.31
2022-11-23T00:14:40.822Z,97227.31
2022-11-23T00:17:43.412Z,97231.03
2022-11-23T00:20:46.068Z,97221.78
2022-11-23T00:23:48.954Z,97224.69
2022-11-23T00:26:52.977Z,97224.84
2022-11-23T00:29:55.626Z,97228.53
2022-11-23T00:32:58.241Z,97225.78
2022-11-23T00:36:01.656Z,97232.16
2022-11-23T00:39:04.727Z,97232.31
2022-11-23T00:42:08.680Z,97231.00
2022-11-23T00:45:11.787Z,97238.41
2022-11-23T00:48:14.367Z,97228.41
2022-11-23T00:51:18.566Z,97232.94
2022-11-23T00:54:21.232Z,97226.03
2022-11-23T00:57:25.466Z,97228.66
2022-11-23T01:00:28.740Z,97222.63
2022-11-23T01:03:32.052Z,97225.03
2022-11-23T01:06:36.480Z,97226.09
2022-11-23T01:09:39.080Z,97233.00
2022-11-23T01:12:43.016Z,97228.03
2022-11-23T01:15:50.380Z,97241.44
2022-11-23T01:18:54.410Z,97233.19
2022-11-23T01:21:57.111Z,97235.09
2022-11-23T01:24:59.793Z,97233.22
2022-11-23T01:28:03.883Z,97233.28
2022-11-23T01:31:07.601Z,97233.91
2022-11-23T01:34:11.387Z,97236.22
2022-11-23T01:37:14.159Z,97231.06
2022-11-23T01:40:17.435Z,97235.66
2022-11-23T01:43:21.430Z,97226.16
2022-11-23T01:46:24.012Z,97236.53
2022-11-23T01:49:27.447Z,97232.94
2022-11-23T01:52:30.042Z,97240.94
2022-11-23T01:55:32.659Z,97239.22
2022-11-23T01:58:39.747Z,97240.97
2022-11-23T02:01:42.480Z,97248.72
2022-11-23T02:04:48.283Z,97256.28
2022-11-23T02:07:51.323Z,97250.78
2022-11-23T02:10:54.337Z,97252.25
2022-11-23T02:13:58.249Z,97257.16
2022-11-23T02:17:00.903Z,97262.91
2022-11-23T02:20:07.560Z,97256.56
2022-11-23T02:23:17.698Z,97257.16
2022-11-23T02:26:23.345Z,97255.25
2022-11-23T02:29:26.712Z,97260.63
2022-11-23T02:32:30.061Z,97265.25
2022-11-23T02:35:32.666Z,97255.38
2022-11-23T02:38:35.268Z,97265.81
2022-11-23T02:41:41.916Z,97273.38
2022-11-23T02:44:49.699Z,97274.75
2022-11-23T02:47:52.328Z,97269.59
2022-11-23T02:50:54.975Z,97262.00
2022-11-23T02:53:57.587Z,97264.84
2022-11-23T02:57:01.689Z,97266.41
2022-11-23T03:00:05.512Z,97262.97
2022-11-23T03:03:08.091Z,97262.56
2022-11-23T03:06:11.135Z,97270.25
2022-11-23T03:09:13.749Z,97263.03
2022-11-23T03:12:17.698Z,97271.13
2022-11-23T03:15:20.323Z,97271.47
2022-11-23T03:18:22.868Z,97272.53
2022-11-23T03:21:25.474Z,97277.38
2022-11-23T03:24:28.030Z,97276.56
2022-11-23T03:27:33.620Z,97272.59
2022-11-23T03:30:36.171Z,97277.38
2022-11-23T03:33:38.757Z,97284.25
2022-11-23T03:36:41.371Z,97278.38
2022-11-23T03:39:47.497Z,97283.00
2022-11-23T03:42:51.977Z,97283.91
2022-11-23T03:45:54.590Z,97284.97
2022-11-23T03:48:57.403Z,97282.50
2022-11-23T03:51:59.982Z,97280.34
2022-11-23T03:58:30.502Z,97272.94
2022-11-23T04:01:33.030Z,97266.72
2022-11-23T04:04:35.920Z,97257.00
2022-11-23T04:07:38.573Z,97268.47
2022-11-23T04:10:41.201Z,97263.56
2022-11-23T04:13:45.117Z,97258.16
2022-11-23T04:16:47.553Z,97252.56
2022-11-23T04:19:50.095Z,97253.06
2022-11-23T04:22:52.760Z,97251.59
2022-11-23T04:25:55.462Z,97248.28
2022-11-23T04:28:59.450Z,97253.97
2022-11-23T04:32:02.056Z,97240.63
2022-11-23T04:35:05.240Z,97251.28
2022-11-23T04:38:07.840Z,97254.28
2022-11-23T04:41:11.037Z,97253.16
2022-11-23T04:44:14.988Z,97254.91
2022-11-23T04:47:17.527Z,97255.84
2022-11-23T04:50:20.263Z,97255.19
2022-11-23T04:53:22.869Z,97247.41
2022-11-23T04:56:25.439Z,97250.38
2022-11-23T04:59:29.594Z,97243.50
2022-11-23T05:02:32.557Z,97250.28
2022-11-23T05:05:35.332Z,97243.13
2022-11-23T05:08:38.293Z,97255.81
2022-11-23T05:11:41.043Z,97244.38
2022-11-23T05:14:44.968Z,97253.94
2022-11-23T05:17:47.518Z,97251.44
2022-11-23T05:20:50.502Z,97249.13
2022-11-23T05:23:53.359Z,97245.81
2022-11-23T05:26:56.560Z,97235.78
2022-11-23T05:30:00.548Z,97247.53
2022-11-23T05:33:04.264Z,97236.44
2022-11-23T05:36:07.553Z,97238.53
2022-11-23T05:39:10.130Z,97244.41
2022-11-23T05:42:12.717Z,97237.59
2022-11-23T05:45:16.739Z,97238.56
2022-11-23T05:48:19.784Z,97236.00
2022-11-23T05:51:22.386Z,97239.53
2022-11-23T05:54:24.970Z,97238.72
2022-11-23T05:57:27.636Z,97245.72
2022-11-23T06:00:31.599Z,97239.31
2022-11-23T06:03:34.257Z,97239.50
2022-11-23T06:06:36.951Z,97236.44
2022-11-23T06:09:39.844Z,97230.56
2022-11-23T06:12:42.493Z,97238.22
2022-11-23T06:15:46.569Z,97231.69
2022-11-23T06:18:49.288Z,97228.03
2022-11-23T06:21:51.972Z,97229.00
2022-11-23T06:24:54.571Z,97236.31
2022-11-23T06:27:57.690Z,97248.75
2022-11-23T06:31:04.752Z,97241.91
2022-11-23T06:34:07.377Z,97243.94
2022-11-23T06:37:10.137Z,97242.00
2022-11-23T06:40:13.449Z,97237.16
2022-11-23T06:43:16.107Z,97239.97
2022-11-23T06:46:20.412Z,97248.13
2022-11-23T06:49:23.297Z,97248.72
2022-11-23T06:52:26.012Z,97247.28
2022-11-23T06:55:28.760Z,97250.28
2022-11-23T06:58:31.372Z,97261.09
2022-11-23T07:01:35.408Z,97252.44
2022-11-23T07:04:38.047Z,97259.25
2022-11-23T07:07:40.832Z,97256.38
2022-11-23T07:10:43.612Z,97265.41
2022-11-23T07:13:46.366Z,97268.09
2022-11-23T07:16:50.500Z,97260.94
2022-11-23T07:19:53.274Z,97274.44
2022-11-23T07:23:01.296Z,97274.19
2022-11-23T07:26:04.049Z,97272.88
2022-11-23T07:29:06.624Z,97277.00
2022-11-23T07:32:10.821Z,97275.28
2022-11-23T07:35:13.519Z,97283.88
2022-11-23T07:38:16.305Z,97275.34
2022-11-23T07:41:18.997Z,97271.00
2022-11-23T07:44:21.741Z,97281.59
2022-11-23T07:47:26.233Z,97285.09
2022-11-23T07:50:29.417Z,97285.75
2022-11-23T07:53:31.992Z,97288.78
2022-11-23T07:56:34.715Z,97289.91
2022-11-23T07:59:37.590Z,97292.09
2022-11-23T08:02:57.755Z,97292.44
2022-11-23T08:06:04.483Z,97296.13
2022-11-23T08:09:07.161Z,97292.81
2022-11-23T08:12:09.781Z,97284.25
2022-11-23T08:15:12.702Z,97286.47
2022-11-23T08:18:16.752Z,97287.75
2022-11-23T08:21:19.462Z,97292.03
2022-11-23T08:24:22.438Z,97295.22
2022-11-23T08:27:25.138Z,97293.66
2022-11-23T08:30:28.948Z,97291.91
2022-11-23T08:33:32.726Z,97296.19
2022-11-23T08:36:35.395Z,97308.78
2022-11-23T08:39:38.164Z,97296.69
2022-11-23T08:42:40.852Z,97293.66
2022-11-23T08:45:43.522Z,97289.81
2022-11-23T08:48:47.577Z,97292.19
2022-11-23T08:51:50.539Z,97291.56
2022-11-23T08:54:53.253Z,97299.97
2022-11-23T08:57:56.826Z,97297.88
2022-11-23T09:00:59.518Z,97305.66
2022-11-23T09:04:04.605Z,97296.22
2022-11-23T09:07:07.664Z,97301.13
2022-11-23T09:10:15.045Z,97301.69
2022-11-23T09:13:20.778Z,97301.00
2022-11-23T09:16:23.453Z,97293.81
2022-11-23T09:19:27.483Z,97289.03
2022-11-23T09:22:30.181Z,97305.28
2022-11-23T09:25:32.811Z,97305.41
2022-11-23T09:28:38.048Z,97297.88
2022-11-23T09:31:43.019Z,97303.69
2022-11-23T09:34:47.120Z,97298.34
2022-11-23T09:37:50.004Z,97294.44
2022-11-23T09:40:57.839Z,97294.38
2022-11-23T09:44:03.934Z,97292.97
2022-11-23T09:47:15.599Z,97297.44
2022-11-23T09:50:25.824Z,97299.75
2022-11-23T09:53:31.656Z,97297.59
2022-11-23T09:56:36.578Z,97293.34
2022-11-23T09:59:42.238Z,97288.44
2022-11-23T10:02:45.170Z,97276.66
2022-11-23T10:05:59.085Z,97277.97
2022-11-23T10:09:18.192Z,97279.47
2022-11-23T10:12:40.486Z,97276.75
2022-11-23T10:15:52.554Z,97276.66
2022-11-23T10:19:00.300Z,97273.13
2022-11-23T10:22:11.528Z,97257.94
2022-11-23T10:25:17.833Z,97260.66
2022-11-23T10:28:22.711Z,97265.84
2022-11-23T10:31:25.958Z,97273.44
2022-11-23T10:34:43.696Z,97263.94
2022-11-23T10:37:47.690Z,97272.44
2022-11-23T10:40:58.675Z,97278.53
2022-11-23T10:44:06.733Z,97261.94
2022-11-23T10:47:09.530Z,97271.03
2022-11-23T10:50:27.244Z,97277.47
2022-11-23T10:53:33.881Z,97274.63
2022-11-23T10:56:36.749Z,97258.56
2022-11-23T10:59:40.121Z,97259.25
2022-11-23T11:02:45.213Z,97257.69
2022-11-23T11:06:08.701Z,97248.00
2022-11-23T11:09:19.259Z,97247.78
2022-11-23T11:12:22.059Z,97250.06
2022-11-23T11:15:25.040Z,97255.78
2022-11-23T11:18:30.255Z,97242.75
2022-11-23T11:21:34.951Z,97241.59
2022-11-23T11:24:44.041Z,97246.75
2022-11-23T11:27:52.811Z,97239.91
2022-11-23T11:31:10.189Z,97238.09
2022-11-23T11:34:19.422Z,97236.75
2022-11-23T11:37:31.929Z,97230.56
2022-11-23T11:40:39.068Z,97230.28
2022-11-23T11:43:44.521Z,97231.44
2022-11-23T11:46:48.990Z,97221.44
2022-11-23T11:49:55.176Z,97220.72
2022-11-23T11:53:02.977Z,97221.16
2022-11-23T11:56:13.218Z,97216.03
2022-11-23T11:59:19.356Z,97217.97
2022-11-23T12:02:25.610Z,97217.66
2022-11-23T12:05:31.601Z,97211.94
2022-11-23T12:08:42.014Z,97211.06
2022-11-23T12:11:46.096Z,97207.34
2022-11-23T12:14:48.881Z,97197.03
2022-11-23T12:18:16.211Z,97195.38
2022-11-23T12:21:36.406Z,97187.97
2022-11-23T12:24:49.769Z,97185.53
2022-11-23T12:28:00.856Z,97183.53
2022-11-23T12:31:09.425Z,97196.06
2022-11-23T12:34:31.614Z,97189.31
2022-11-23T12:37:41.368Z,97196.19
2022-11-23T12:40:53.368Z,97179.50
2022-11-23T12:44:14.427Z,97187.53
2022-11-23T12:47:27.348Z,97173.16
2022-11-23T12:50:35.347Z,97181.13
2022-11-23T12:53:45.223Z,97189.22
2022-11-23T12:57:05.660Z,97180.41
2022-11-23T13:00:16.965Z,97179.28
2022-11-23T13:03:42.801Z,97175.50
2022-11-23T13:07:28.475Z,97174.13
2022-11-23T13:10:28.776Z,97172.38
2022-11-23T13:13:43.133Z,97170.25
2022-11-23T13:17:04.837Z,97166.41
2022-11-23T13:20:27.770Z,97164.16
2022-11-23T13:23:36.177Z,97158.28
2022-11-23T13:26:38.972Z,97156.38
2022-11-23T13:29:52.312Z,97152.63
2022-11-23T13:32:58.905Z,97150.72
2022-11-23T13:36:07.643Z,97137.75
2022-11-23T13:40:00.792Z,97129.50
2022-11-23T13:43:06.049Z,97135.75
2022-11-23T13:46:15.232Z,97133.28
2022-11-23T13:49:33.233Z,97116.94
2022-11-23T13:52:36.919Z,97119.91
2022-11-23T13:55:39.759Z,97118.16
2022-11-23T13:58:51.807Z,97108.88
2022-11-23T14:02:28.276Z,97097.66
2022-11-23T14:05:56.966Z,97095.91
2022-11-23T14:09:03.573Z,97101.00
2022-11-23T14:12:13.673Z,97080.00
2022-11-23T14:15:18.397Z,97070.28
2022-11-23T14:18:39.809Z,97073.28
2022-11-23T14:21:49.269Z,97071.03
2022-11-23T14:25:03.017Z,97066.63
2022-11-23T14:28:08.287Z,97064.97
2022-11-23T14:31:18.084Z,97060.31
2022-11-23T14:34:26.703Z,97072.13
2022-11-23T14:37:37.844Z,97062.91
2022-11-23T14:40:49.563Z,97062.50
2022-11-23T14:43:52.454Z,97058.75
2022-11-23T14:47:01.912Z,97056.41
2022-11-23T14:50:04.959Z,97051.44
2022-11-23T14:53:12.007Z,97053.41
2022-11-23T14:56:24.124Z,97044.72
2022-11-23T14:59:28.414Z,97035.56
2022-11-23T15:02:34.888Z,97035.22
2022-11-23T15:05:38.760Z,97048.16
2022-11-23T15:08:47.110Z,97039.69
2022-11-23T15:11:50.445Z,97038.34
2022-11-23T15:14:54.093Z,97025.38
2022-11-23T15:17:57.054Z,97028.72
2022-11-23T15:21:01.903Z,97033.84
2022-11-23T15:24:06.196Z,97040.91
2022-11-23T15:27:17.770Z,97047.78
2022-11-23T15:30:21.586Z,97038.53
2022-11-23T15:33:25.093Z,97036.88
2022-11-23T15:36:30.026Z,97043.25
2022-11-23T15:39:34.914Z,97034.28
2022-11-23T15:42:38.341Z,97037.03
2022-11-23T15:45:59.976Z,97038.81
2022-11-23T15:49:04.416Z,97033.84
2022-11-23T15:52:07.314Z,97044.56
2022-11-23T15:55:15.187Z,97042.06
2022-11-23T15:58:19.033Z,97049.75
2022-11-23T16:01:22.369Z,97041.59
2022-11-23T16:04:28.126Z,97056.63
2022-11-23T16:07:31.068Z,97059.31
2022-11-23T16:10:35.715Z,97064.81
2022-11-23T16:13:39.956Z,97065.38
2022-11-23T16:16:46.153Z,97071.97
2022-11-23T16:19:50.267Z,97083.16
2022-11-23T16:22:53.803Z,97080.19
2022-11-23T16:25:59.413Z,97087.91
2022-11-23T16:29:02.398Z,97088.91
2022-11-23T16:32:07.242Z,97093.88
2022-11-23T16:35:18.592Z,97099.88
2022-11-23T16:38:21.871Z,97106.22
2022-11-23T16:41:26.015Z,97111.16
2022-11-23T16:44:30.933Z,97124.00
2022-11-23T16:47:34.173Z,97138.59
2022-11-23T16:50:40.598Z,97140.84
2022-11-23T16:54:11.883Z,97156.22
2022-11-23T16:57:08.531Z,97159.34
2022-11-23T17:00:17.341Z,97166.44
2022-11-23T17:03:21.268Z,97170.41
2022-11-23T17:06:23.929Z,97175.50
2022-11-23T17:09:26.534Z,97182.09
2022-11-23T17:12:30.918Z,97188.22
2022-11-23T17:15:34.516Z,97200.41
2022-11-23T17:18:37.124Z,97209.69
2022-11-23T17:21:39.855Z,97206.41
2022-11-23T17:24:42.585Z,97203.94
2022-11-23T17:27:47.325Z,97210.97
2022-11-23T17:30:50.156Z,97212.78
2022-11-23T17:33:52.792Z,97213.03
2022-11-23T17:36:55.360Z,97228.91
2022-11-23T17:39:57.972Z,97228.91
2022-11-23T17:43:02.164Z,97241.72
2022-11-23T17:46:05.156Z,97243.19
2022-11-23T17:49:11.284Z,97250.34
2022-11-23T17:52:13.948Z,97263.38
2022-11-23T17:55:17.261Z,97269.84
2022-11-23T17:58:21.281Z,97275.84
2022-11-23T18:01:24.891Z,97279.72
2022-11-23T18:04:27.692Z,97275.41
2022-11-23T18:07:30.459Z,97278.44
2022-11-23T18:10:33.177Z,97280.16
2022-11-23T18:13:37.891Z,97279.88
2022-11-23T18:16:40.850Z,97283.06
2022-11-23T18:19:43.549Z,97276.38
2022-11-23T18:22:46.200Z,97275.31
2022-11-23T18:25:59.459Z,97277.09
2022-11-23T18:29:04.269Z,97284.44
2022-11-23T18:32:08.330Z,97290.66
2022-11-23T18:35:11.185Z,97296.31
2022-11-23T18:38:13.888Z,97303.81
2022-11-23T18:41:17.921Z,97306.75
2022-11-23T18:44:21.801Z,97306.31
2022-11-23T18:47:25.066Z,97312.66
2022-11-23T18:50:27.709Z,97310.56
2022-11-23T18:53:30.416Z,97321.97
2022-11-23T18:56:33.172Z,97320.66
2022-11-23T19:03:02.150Z,97316.81
2022-11-23T19:06:05.746Z,97332.06
2022-11-23T19:09:08.428Z,97339.22
2022-11-23T19:12:11.086Z,97339.59
2022-11-23T19:15:15.125Z,97345.22
2022-11-23T19:18:17.851Z,97339.13
2022-11-23T19:21:22.397Z,97353.66
2022-11-23T19:24:24.996Z,97349.56
2022-11-23T19:27:27.886Z,97361.06
2022-11-23T19:30:31.907Z,97373.66
2022-11-23T19:33:34.998Z,97374.44
2022-11-23T19:36:37.603Z,97386.59
2022-11-23T19:39:40.193Z,97375.09
2022-11-23T19:42:43.524Z,97390.06
2022-11-23T19:45:54.660Z,97398.81
2022-11-23T19:48:58.173Z,97411.19
2022-11-23T19:52:01.806Z,97415.94
2022-11-23T19:55:05.874Z,97426.59
2022-11-23T19:58:08.634Z,97430.59
2022-11-23T20:01:14.884Z,97439.06
2022-11-23T20:04:17.671Z,97445.19
2022-11-23T20:07:20.688Z,97447.56
2022-11-23T20:10:23.435Z,97462.75
2022-11-23T20:13:26.780Z,97468.88
2022-11-23T20:16:32.791Z,97478.28
2022-11-23T20:19:35.743Z,97483.81
2022-11-23T20:22:38.730Z,97495.38
2022-11-23T20:25:42.259Z,97498.75
2022-11-23T20:28:45.103Z,97504.22
2022-11-23T20:31:51.397Z,97523.53
2022-11-23T20:34:54.110Z,97535.75
2022-11-23T20:37:57.173Z,97538.78
2022-11-23T20:40:59.839Z,97542.34
2022-11-23T20:44:04.151Z,97561.91
2022-11-23T20:47:08.216Z,97570.09
2022-11-23T20:50:11.227Z,97576.19
2022-11-23T20:53:13.902Z,97591.97
2022-11-23T20:56:17.247Z,97608.66
2022-11-23T20:59:20.775Z,97602.50
2022-11-23T21:02:24.839Z,97605.25
2022-11-23T21:05:29.223Z,97616.72
2022-11-23T21:08:34.798Z,97624.78
2022-11-23T21:11:55.888Z,97614.28
2022-11-23T21:14:58.851Z,97624.19
2022-11-23T21:18:03.097Z,97634.47
2022-11-23T21:21:05.991Z,97638.28
2022-11-23T21:24:09.127Z,97630.09
2022-11-23T21:27:13.448Z,97627.31
2022-11-23T21:30:16.276Z,97639.44
2022-11-23T21:33:20.315Z,97647.19
2022-11-23T21:36:23.346Z,97654.97
2022-11-23T21:39:25.995Z,97662.91
2022-11-23T21:42:28.691Z,97672.28
2022-11-23T21:45:31.340Z,97676.13
2022-11-23T21:48:35.711Z,97679.28
2022-11-23T21:51:39.197Z,97686.31
2022-11-23T21:54:47.282Z,97699.66
2022-11-23T21:57:51.668Z,97705.91
2022-11-23T22:00:54.341Z,97721.84
2022-11-23T22:03:59.729Z,97716.94
2022-11-23T22:07:02.333Z,97714.50
2022-11-23T22:10:05.164Z,97721.78
2022-11-23T22:13:07.731Z,97732.91
2022-11-23T22:16:15.472Z,97730.50
2022-11-23T22:19:19.522Z,97732.09
2022-11-23T22:22:22.137Z,97739.13
2022-11-23T22:25:24.719Z,97737.78
2022-11-23T22:28:31.923Z,97745.16
2022-11-23T22:31:35.805Z,97754.94
2022-11-23T22:34:40.395Z,97751.13
2022-11-23T22:37:43.020Z,97753.25
2022-11-23T22:40:46.802Z,97763.78
2022-11-23T22:43:49.417Z,97763.81
2022-11-23T22:46:52.031Z,97773.72
2022-11-23T22:49:56.000Z,97766.03
2022-11-23T22:52:59.953Z,97770.28
2022-11-23T22:56:03.234Z,97771.81
2022-11-23T22:59:05.971Z,97779.94
2022-11-23T23:02:08.646Z,97783.41
2022-11-23T23:05:12.914Z,97783.50
2022-11-23T23:08:15.519Z,97785.56
2022-11-23T23:11:18.194Z,97797.31
2022-11-23T23:14:21.028Z,97804.63
2022-11-23T23:17:24.081Z,97801.25
2022-11-23T23:20:27.996Z,97807.72
2022-11-23T23:23:31.033Z,97809.63
2022-11-23T23:26:33.685Z,97820.59
2022-11-23T23:29:36.276Z,97825.75
2022-11-23T23:32:38.927Z,97825.09
2022-11-23T23:35:42.855Z,97830.75
2022-11-23T23:38:45.485Z,97830.75
2022-11-23T23:41:48.050Z,97828.44
2022-11-23T23:44:50.665Z,97831.63
2022-11-23T23:47:53.353Z,97837.88
2022-11-23T23:50:57.379Z,97844.94
2022-11-23T23:54:00.013Z,97836.09
2022-11-23T23:57:02.753Z,97847.88
